KDRI

Beauregard Regional Airport

De Ridder, Louisiana, USA
METAR KDRI 181255Z AUTO 00000KT 1SM BR OVC002 09/08 A3017 RMK AO2 T00900083
Observed Flight Rules
Dec-18 @ 12:55 UTC (18 minutes ago) Instrument Flight Rules
Visibility Clouds Conditions
1 miles
  • Overcast at 200' AGL
  • Mist
Temperatures Readings
Current 9°C / 48°F
Dewpoint 8°C / 46°F
Humidity 94%
Altimeter 30.17" Hg
Pressure 1022 hPa
Elevation 63
METAR KDRI 181255Z AUTO 00000KT 1SM BR OVC002 09/08 A3017 RMK AO2 T00900083
Observed Flight Rules
Dec-18 @ 12:55 UTC
(18 minutes ago)
LIFR
Clouds
  • Overcast at 200' AGL
Conditions
  • Mist
Temperature Dewpoint
9°C / 48°F 8°C / 46°F
Humidity Altimeter Pressure
94% 30.17" Hg 1022 hPa